Time;durP1;ratioP1;P1;durP2;ratioP2;P2;SDS_P1;SDS_P2;PMS_P1;PMS_P2;Temp;Humidity;BMP_temperature;BMP_pressure;BME280_temperature;BME280_humidity;BME280_pressure;Samples;Min_cycle;Max_cycle;Signal;HPM_P1;HPM_P2
2023/12/10 00:02:14;;;;;;;10.60;9.27;;;5.90;99.90;;;;;;4938838;29;20245;-83
2023/12/10 00:04:41;;;;;;;10.52;9.23;;;5.90;99.90;;;;;;4937598;29;20244;-83
2023/12/10 00:07:10;;;;;;;11.30;9.73;;;6.00;99.90;;;;;;4938107;29;20520;-77
2023/12/10 00:09:37;;;;;;;10.70;9.43;;;6.00;99.90;;;;;;4939553;29;20291;-83
2023/12/10 00:12:08;;;;;;;11.20;9.60;;;6.00;99.90;;;;;;4938517;29;20244;-83
2023/12/10 00:14:37;;;;;;;10.65;9.55;;;6.00;99.90;;;;;;4938531;29;20308;-82
2023/12/10 00:17:04;;;;;;;10.77;9.75;;;6.00;99.90;;;;;;4937901;29;20233;-82
2023/12/10 00:19:32;;;;;;;12.50;11.20;;;5.90;99.90;;;;;;4938484;29;20464;-83
2023/12/10 00:21:59;;;;;;;14.00;10.60;;;6.00;99.90;;;;;;4938059;29;20228;-76
2023/12/10 00:24:27;;;;;;;11.38;9.90;;;6.00;99.90;;;;;;4957365;29;20243;-83
2023/12/10 00:26:55;;;;;;;11.85;10.65;;;5.90;99.90;;;;;;4957475;29;20314;-82
2023/12/10 00:29:22;;;;;;;11.02;9.93;;;5.90;99.90;;;;;;4958380;29;20267;-82
2023/12/10 00:31:51;;;;;;;11.00;9.85;;;5.90;99.90;;;;;;4957635;29;20228;-76
2023/12/10 00:34:18;;;;;;;11.30;10.10;;;6.00;99.90;;;;;;4956970;28;20234;-76
2023/12/10 00:36:45;;;;;;;11.57;10.30;;;5.90;99.90;;;;;;4957349;28;20224;-76
2023/12/10 00:39:12;;;;;;;9.88;8.88;;;6.00;99.90;;;;;;4957447;29;20228;-76
2023/12/10 00:41:39;;;;;;;11.20;10.00;;;6.00;99.90;;;;;;4958523;29;20282;-83
2023/12/10 00:44:07;;;;;;;13.20;9.85;;;6.00;99.90;;;;;;4958140;29;20725;-83
2023/12/10 00:46:34;;;;;;;17.30;9.68;;;6.00;99.90;;;;;;4957424;29;20224;-76
2023/12/10 00:49:02;;;;;;;10.07;9.07;;;5.90;99.90;;;;;;4956719;29;20253;-83
2023/12/10 00:51:29;;;;;;;10.88;9.75;;;6.00;99.90;;;;;;4957838;29;20224;-83
2023/12/10 00:53:59;;;;;;;12.13;10.35;;;6.00;99.90;;;;;;4956492;29;20326;-76
2023/12/10 00:56:26;;;;;;;12.85;11.55;;;5.90;99.90;;;;;;4957177;29;20316;-76
2023/12/10 00:58:53;;;;;;;12.82;9.75;;;5.90;99.90;;;;;;4956987;29;20282;-83
2023/12/10 01:01:20;;;;;;;10.30;9.25;;;5.80;99.90;;;;;;4956507;29;20252;-82
2023/12/10 01:03:47;;;;;;;12.70;9.63;;;5.90;99.90;;;;;;4955963;29;20228;-83
2023/12/10 01:06:16;;;;;;;10.95;9.85;;;6.00;99.90;;;;;;4956836;28;20659;-76
2023/12/10 01:08:43;;;;;;;10.23;9.25;;;5.90;99.90;;;;;;4957020;29;20314;-82
2023/12/10 01:11:10;;;;;;;9.85;8.70;;;6.00;99.90;;;;;;4956447;28;20252;-83
2023/12/10 01:13:38;;;;;;;11.45;10.20;;;6.00;99.90;;;;;;4956884;28;20230;-83
2023/12/10 01:16:06;;;;;;;10.60;9.00;;;6.00;99.90;;;;;;4955973;28;20626;-83
2023/12/10 01:18:34;;;;;;;11.88;10.00;;;6.10;99.90;;;;;;4956075;28;20295;-83
2023/12/10 01:21:02;;;;;;;10.07;9.07;;;6.00;99.90;;;;;;4955931;28;20232;-83
2023/12/10 01:23:31;;;;;;;10.32;8.55;;;6.00;99.90;;;;;;4957739;28;20227;-76
2023/12/10 01:25:58;;;;;;;11.90;9.43;;;6.00;99.90;;;;;;4956187;29;20255;-76
2023/12/10 01:28:25;;;;;;;10.85;9.75;;;6.00;99.90;;;;;;4956486;29;20234;-76
2023/12/10 01:30:52;;;;;;;10.10;9.10;;;6.00;99.90;;;;;;4956184;29;20220;-83
2023/12/10 01:33:19;;;;;;;10.93;9.85;;;6.00;99.90;;;;;;4957333;29;20227;-76
2023/12/10 01:35:46;;;;;;;9.75;8.85;;;6.10;99.90;;;;;;4956298;29;20231;-83
2023/12/10 01:38:13;;;;;;;9.65;8.75;;;6.00;99.90;;;;;;4956241;29;20239;-83
2023/12/10 01:40:42;;;;;;;9.45;8.50;;;6.00;99.90;;;;;;4956395;29;20227;-83
2023/12/10 01:43:09;;;;;;;11.60;9.63;;;6.00;99.90;;;;;;4955861;29;20236;-76
2023/12/10 01:45:40;;;;;;;10.10;7.90;;;6.00;99.90;;;;;;4945678;29;20259;-83
2023/12/10 01:48:08;;;;;;;9.60;8.63;;;6.00;99.90;;;;;;4936708;29;20626;-83
2023/12/10 01:50:39;;;;;;;9.98;8.98;;;6.10;99.90;;;;;;4937380;29;20287;-83
2023/12/10 01:53:06;;;;;;;11.65;8.35;;;6.10;99.90;;;;;;4936815;29;20557;-83
2023/12/10 01:55:34;;;;;;;12.13;8.70;;;6.20;99.90;;;;;;4937340;29;20229;-84
2023/12/10 01:58:05;;;;;;;9.27;8.30;;;6.20;99.90;;;;;;4936862;29;20704;-77
2023/12/10 02:00:33;;;;;;;10.25;8.63;;;6.20;99.90;;;;;;4937845;29;20228;-83
2023/12/10 02:03:00;;;;;;;7.38;6.70;;;6.10;99.90;;;;;;4942426;29;20296;-81
2023/12/10 02:05:27;;;;;;;9.00;6.95;;;6.10;99.90;;;;;;4965471;29;20234;-82
2023/12/10 02:07:55;;;;;;;8.65;7.78;;;6.20;99.90;;;;;;4963944;29;20685;-83
2023/12/10 02:10:22;;;;;;;8.82;7.55;;;6.20;99.90;;;;;;4955971;29;20254;-83
2023/12/10 02:12:52;;;;;;;8.82;7.70;;;6.10;99.90;;;;;;4958513;28;20247;-82
2023/12/10 02:15:25;;;;;;;7.57;6.90;;;6.00;99.90;;;;;;4956806;28;20314;-76
2023/12/10 02:17:52;;;;;;;8.70;8.00;;;5.90;99.90;;;;;;4956146;28;20301;-76
2023/12/10 02:20:19;;;;;;;7.65;6.95;;;5.90;99.90;;;;;;4954770;28;20564;-75
2023/12/10 02:22:53;;;;;;;7.07;6.40;;;6.00;99.90;;;;;;4955843;28;20286;-82
2023/12/10 02:25:36;;;;;;;7.05;6.43;;;6.00;99.90;;;;;;4953226;29;20550;-82
2023/12/10 02:28:03;;;;;;;6.72;6.13;;;6.00;99.90;;;;;;4955490;29;20694;-82
2023/12/10 02:30:30;;;;;;;7.70;6.55;;;6.10;99.90;;;;;;4955818;29;20228;-82
2023/12/10 02:32:57;;;;;;;6.82;6.15;;;6.00;99.90;;;;;;4955863;29;20283;-82
2023/12/10 02:35:26;;;;;;;7.05;6.45;;;6.00;99.90;;;;;;4955998;28;20290;-75
2023/12/10 02:37:54;;;;;;;6.43;5.82;;;5.90;99.90;;;;;;4956658;29;20319;-75
2023/12/10 02:40:21;;;;;;;6.43;5.80;;;5.90;99.90;;;;;;4956188;29;20236;-75
2023/12/10 02:42:50;;;;;;;6.70;6.10;;;6.00;99.90;;;;;;4956249;29;20224;-83
2023/12/10 02:45:20;;;;;;;7.38;6.68;;;6.00;99.90;;;;;;4954166;29;20220;-76
2023/12/10 02:47:54;;;;;;;6.85;5.97;;;6.00;99.90;;;;;;4955697;29;20670;-76
2023/12/10 02:50:21;;;;;;;6.35;5.75;;;6.00;99.90;;;;;;4955459;29;20228;-76
2023/12/10 02:52:48;;;;;;;7.90;7.10;;;6.00;99.90;;;;;;4957063;29;20227;-82
2023/12/10 02:55:16;;;;;;;7.93;6.68;;;6.00;99.90;;;;;;4955354;29;20605;-82
2023/12/10 02:57:43;;;;;;;7.40;6.60;;;6.00;99.90;;;;;;4956903;29;20228;-81
2023/12/10 03:00:14;;;;;;;7.43;6.53;;;6.00;99.90;;;;;;4946490;29;20227;-76
2023/12/10 03:02:41;;;;;;;7.30;6.55;;;6.00;99.90;;;;;;4955322;29;20236;-76
2023/12/10 03:05:08;;;;;;;8.10;6.88;;;6.00;99.90;;;;;;4939147;29;20235;-82
2023/12/10 03:07:37;;;;;;;6.93;6.22;;;6.00;99.90;;;;;;4937028;29;20572;-75
2023/12/10 03:10:05;;;;;;;7.40;6.72;;;6.00;99.90;;;;;;4954253;29;20553;-76
2023/12/10 03:12:32;;;;;;;8.30;6.45;;;5.90;99.90;;;;;;4955427;28;20230;-82
2023/12/10 03:15:00;;;;;;;7.38;6.70;;;5.90;99.90;;;;;;4956078;28;20319;-83
2023/12/10 03:17:29;;;;;;;7.00;6.32;;;5.90;99.90;;;;;;4954210;28;20255;-82
2023/12/10 03:19:56;;;;;;;10.02;7.00;;;5.80;99.90;;;;;;4955472;28;20609;-76
2023/12/10 03:22:23;;;;;;;7.90;6.80;;;5.90;99.90;;;;;;4955559;28;20248;-82
2023/12/10 03:24:51;;;;;;;8.95;8.05;;;5.90;99.90;;;;;;4955799;28;20297;-82
2023/12/10 03:27:19;;;;;;;7.10;6.50;;;5.90;99.90;;;;;;4955349;28;20248;-82
2023/12/10 03:29:46;;;;;;;6.97;6.38;;;5.90;99.90;;;;;;4945692;28;20220;-82
2023/12/10 03:32:13;;;;;;;9.70;7.63;;;5.90;99.90;;;;;;4954619;28;20248;-81
2023/12/10 03:34:41;;;;;;;8.02;7.20;;;5.90;99.90;;;;;;4955734;28;20675;-75
2023/12/10 03:37:09;;;;;;;8.27;7.47;;;5.80;99.90;;;;;;4955395;28;20228;-82
2023/12/10 03:39:36;;;;;;;9.07;8.05;;;5.80;99.90;;;;;;4957155;28;20546;-82
2023/12/10 03:42:03;;;;;;;8.35;7.65;;;5.80;99.90;;;;;;4958358;28;20232;-75
2023/12/10 03:44:32;;;;;;;7.10;6.45;;;5.80;99.90;;;;;;4959115;28;20570;-76
2023/12/10 03:47:01;;;;;;;7.55;6.80;;;5.90;99.90;;;;;;4961237;28;20232;-82
2023/12/10 03:49:29;;;;;;;7.38;6.68;;;5.90;99.90;;;;;;4963507;28;20688;-81
2023/12/10 03:51:59;;;;;;;7.72;6.93;;;5.90;99.90;;;;;;4960748;28;20678;-82
2023/12/10 03:54:26;;;;;;;8.27;7.47;;;6.00;99.90;;;;;;4960188;28;20232;-82
2023/12/10 03:56:54;;;;;;;9.13;8.27;;;5.90;99.90;;;;;;4960250;28;20228;-75
2023/12/10 03:59:21;;;;;;;7.28;6.57;;;6.00;99.90;;;;;;4958627;28;20315;-76
2023/12/10 04:01:48;;;;;;;7.32;6.63;;;6.00;99.90;;;;;;4959642;28;20264;-75
2023/12/10 04:04:15;;;;;;;7.80;7.00;;;6.00;99.90;;;;;;4959054;28;20235;-75
2023/12/10 04:06:42;;;;;;;7.07;6.38;;;6.00;99.90;;;;;;4959632;28;20247;-75
2023/12/10 04:09:12;;;;;;;7.97;7.07;;;6.00;99.90;;;;;;4959399;28;20238;-81
2023/12/10 04:11:39;;;;;;;8.40;7.60;;;6.00;99.90;;;;;;4959048;28;20224;-75
2023/12/10 04:14:09;;;;;;;7.75;7.05;;;6.00;99.90;;;;;;4961022;28;20236;-76
2023/12/10 04:16:37;;;;;;;8.43;7.35;;;6.00;99.90;;;;;;4960045;28;20228;-75
2023/12/10 04:19:05;;;;;;;9.85;7.30;;;6.00;99.90;;;;;;4958637;28;20235;-75
2023/12/10 04:21:33;;;;;;;7.75;7.05;;;6.00;99.90;;;;;;4958039;28;20234;-75
2023/12/10 04:24:00;;;;;;;9.10;8.15;;;6.00;99.90;;;;;;4958748;28;20227;-81
2023/12/10 04:26:28;;;;;;;8.45;7.13;;;6.00;99.90;;;;;;4957856;28;20235;-81
2023/12/10 04:28:55;;;;;;;8.35;7.65;;;6.10;99.90;;;;;;4958762;28;20562;-82
2023/12/10 04:31:23;;;;;;;7.35;6.65;;;6.10;99.90;;;;;;4960756;28;20224;-81
2023/12/10 04:33:51;;;;;;;8.93;8.02;;;6.10;99.90;;;;;;4958340;28;20228;-75
2023/12/10 04:36:18;;;;;;;7.63;6.93;;;6.10;99.90;;;;;;4957989;28;20224;-75
2023/12/10 04:38:45;;;;;;;9.30;8.18;;;6.10;99.90;;;;;;4958064;28;20220;-75
2023/12/10 04:41:12;;;;;;;7.45;6.75;;;6.10;99.90;;;;;;4958104;28;20228;-82
2023/12/10 04:43:40;;;;;;;7.68;6.97;;;6.10;99.90;;;;;;4958817;28;20220;-82
2023/12/10 04:46:07;;;;;;;9.52;7.97;;;6.10;99.90;;;;;;4958858;28;20247;-75
2023/12/10 04:48:34;;;;;;;8.63;7.72;;;6.10;99.90;;;;;;4958217;28;20236;-75
2023/12/10 04:51:02;;;;;;;7.30;6.60;;;6.10;99.90;;;;;;4958085;28;20228;-82
2023/12/10 04:53:29;;;;;;;8.57;7.55;;;6.10;99.90;;;;;;4947655;28;20228;-81
2023/12/10 04:55:59;;;;;;;8.40;7.40;;;6.10;99.90;;;;;;4958324;28;20224;-82
2023/12/10 04:58:26;;;;;;;7.75;7.00;;;6.10;99.90;;;;;;4958730;28;20568;-75
2023/12/10 05:00:55;;;;;;;8.68;7.72;;;6.20;99.90;;;;;;4958163;28;20686;-75
2023/12/10 05:03:22;;;;;;;9.05;7.90;;;6.20;99.90;;;;;;4958202;28;20232;-81
2023/12/10 05:05:49;;;;;;;8.52;7.65;;;6.20;99.90;;;;;;4946672;28;20228;-82
2023/12/10 05:08:16;;;;;;;8.88;8.07;;;6.20;99.90;;;;;;4957171;28;20240;-75
2023/12/10 05:10:44;;;;;;;8.48;7.57;;;6.20;99.90;;;;;;4956134;28;20482;-75
2023/12/10 05:13:11;;;;;;;8.97;8.17;;;6.20;99.90;;;;;;4957089;28;20238;-82
2023/12/10 05:15:47;;;;;;;8.43;7.60;;;6.30;99.90;;;;;;4955986;28;20674;-82
2023/12/10 05:18:16;;;;;;;8.20;7.40;;;6.30;99.90;;;;;;4956940;28;20251;-82
2023/12/10 05:20:43;;;;;;;10.30;9.18;;;6.30;99.90;;;;;;4956322;28;20307;-75
2023/12/10 05:23:13;;;;;;;9.15;8.25;;;6.30;99.90;;;;;;4957096;28;20295;-82
2023/12/10 05:25:40;;;;;;;9.15;8.05;;;6.20;99.90;;;;;;4955992;28;20224;-75
2023/12/10 05:28:07;;;;;;;8.70;7.90;;;6.30;99.90;;;;;;4956061;28;20243;-82
2023/12/10 05:30:34;;;;;;;8.60;7.80;;;6.30;99.90;;;;;;4956659;28;20259;-82
2023/12/10 05:33:01;;;;;;;9.75;8.75;;;6.30;99.90;;;;;;4956219;28;20283;-75
2023/12/10 05:35:30;;;;;;;8.07;7.22;;;6.40;99.90;;;;;;4956230;28;20577;-82
2023/12/10 05:37:57;;;;;;;8.70;7.90;;;6.40;99.90;;;;;;4956201;28;20239;-76
2023/12/10 05:40:25;;;;;;;10.27;9.07;;;6.40;99.90;;;;;;4956332;28;20337;-75
2023/12/10 05:42:53;;;;;;;8.95;8.05;;;6.40;99.90;;;;;;4954868;28;20582;-82
2023/12/10 05:45:20;;;;;;;9.55;8.52;;;6.50;99.90;;;;;;4956031;28;20231;-82
2023/12/10 05:47:47;;;;;;;9.23;8.32;;;6.50;99.90;;;;;;4955987;28;20239;-75
2023/12/10 05:50:14;;;;;;;8.88;7.97;;;6.50;99.90;;;;;;4956354;28;20244;-82
2023/12/10 05:52:46;;;;;;;10.48;8.90;;;6.50;99.90;;;;;;4955618;28;20259;-82
2023/12/10 05:55:16;;;;;;;8.43;7.57;;;6.60;99.90;;;;;;4956142;28;20232;-75
2023/12/10 05:57:43;;;;;;;8.80;7.90;;;6.60;99.90;;;;;;4955136;28;20314;-75
2023/12/10 06:00:11;;;;;;;9.75;8.85;;;6.60;99.90;;;;;;4956041;28;20369;-75
2023/12/10 06:02:38;;;;;;;8.55;7.75;;;6.70;99.90;;;;;;4955911;28;20239;-75
2023/12/10 06:05:06;;;;;;;9.23;8.32;;;6.70;99.90;;;;;;4955110;28;20228;-75
2023/12/10 06:07:33;;;;;;;9.60;8.60;;;6.70;99.90;;;;;;4956004;28;20697;-75
2023/12/10 06:10:02;;;;;;;10.10;9.10;;;6.70;99.90;;;;;;4955350;28;20239;-82
2023/12/10 06:12:32;;;;;;;10.07;9.02;;;6.70;99.90;;;;;;4955610;28;20231;-75
2023/12/10 06:14:59;;;;;;;12.48;11.38;;;6.70;99.90;;;;;;4955246;28;20235;-75
2023/12/10 06:17:26;;;;;;;9.90;8.90;;;6.70;99.90;;;;;;4955969;28;20224;-75
2023/12/10 06:19:53;;;;;;;10.00;9.02;;;6.70;99.90;;;;;;4955491;28;20231;-82
2023/12/10 06:22:21;;;;;;;11.23;10.10;;;6.70;99.90;;;;;;4962149;28;20232;-75
2023/12/10 06:24:48;;;;;;;11.90;10.68;;;6.70;99.90;;;;;;4962508;28;20549;-80
2023/12/10 06:27:17;;;;;;;11.02;9.82;;;6.70;99.90;;;;;;4960502;28;20227;-83
2023/12/10 06:29:46;;;;;;;13.27;10.60;;;6.80;99.90;;;;;;4955421;28;20600;-81
2023/12/10 06:32:13;;;;;;;14.60;11.20;;;6.80;99.90;;;;;;4956451;28;20232;-82
2023/12/10 06:34:42;;;;;;;10.70;9.02;;;6.80;99.90;;;;;;4956243;28;20239;-83
2023/12/10 06:37:12;;;;;;;10.50;9.60;;;6.90;99.90;;;;;;4947034;28;20235;-81
2023/12/10 06:39:39;;;;;;;13.68;10.48;;;6.90;99.90;;;;;;4955508;28;20224;-82
2023/12/10 06:42:06;;;;;;;10.88;9.82;;;6.90;99.90;;;;;;4945186;28;20228;-82
2023/12/10 06:44:36;;;;;;;13.32;9.70;;;6.90;99.90;;;;;;4955967;28;20674;-82
2023/12/10 06:47:04;;;;;;;10.20;9.18;;;6.90;99.90;;;;;;4955811;28;20251;-82
2023/12/10 06:49:31;;;;;;;12.23;11.00;;;6.90;99.90;;;;;;4956150;28;20236;-82
2023/12/10 06:51:58;;;;;;;10.77;9.68;;;6.90;99.90;;;;;;4955183;28;20254;-82
2023/12/10 06:54:25;;;;;;;12.73;10.50;;;6.90;99.90;;;;;;4955604;28;20235;-75
2023/12/10 06:56:52;;;;;;;11.38;10.23;;;7.00;99.90;;;;;;4955172;28;20228;-76
2023/12/10 06:59:19;;;;;;;11.32;10.23;;;7.00;99.90;;;;;;4955303;28;20220;-76
2023/12/10 07:01:48;;;;;;;11.00;9.57;;;7.00;99.90;;;;;;4955238;28;20220;-82
2023/12/10 07:04:15;;;;;;;10.10;9.10;;;7.00;99.90;;;;;;4955226;28;20224;-76
2023/12/10 07:06:53;;;;;;;11.70;9.30;;;7.10;99.90;;;;;;4955507;28;20224;-76
2023/12/10 07:09:20;;;;;;;10.55;9.55;;;7.10;99.90;;;;;;4953783;28;20259;-75
2023/12/10 07:11:47;;;;;;;11.85;10.35;;;7.10;99.90;;;;;;4952431;28;20235;-75
2023/12/10 07:14:15;;;;;;;12.65;9.77;;;7.10;99.90;;;;;;4954952;28;20236;-83
2023/12/10 07:16:42;;;;;;;10.48;9.45;;;7.10;99.90;;;;;;4955422;28;20235;-75
2023/12/10 07:19:12;;;;;;;10.13;9.00;;;7.10;99.90;;;;;;4957790;28;20239;-76
2023/12/10 07:21:45;;;;;;;13.65;10.10;;;7.10;99.90;;;;;;4937821;28;20228;-82
2023/12/10 07:24:12;;;;;;;9.40;8.50;;;7.10;99.90;;;;;;4958134;28;20246;-75
2023/12/10 07:26:39;;;;;;;10.82;8.65;;;7.10;99.90;;;;;;4958933;28;20307;-75
2023/12/10 07:29:06;;;;;;;9.63;7.82;;;7.10;99.90;;;;;;4958522;28;20235;-75
2023/12/10 07:31:36;;;;;;;8.90;8.00;;;7.10;99.90;;;;;;4958847;28;20227;-82
2023/12/10 07:34:03;;;;;;;9.60;8.35;;;7.20;99.90;;;;;;4958347;28;20236;-82
2023/12/10 07:36:32;;;;;;;11.15;7.95;;;7.20;99.90;;;;;;4958341;28;20220;-83
2023/12/10 07:38:59;;;;;;;9.55;8.52;;;7.20;99.90;;;;;;4958129;28;20688;-82
2023/12/10 07:41:26;;;;;;;7.57;6.85;;;7.20;99.90;;;;;;4958284;28;20251;-82
2023/12/10 07:43:54;;;;;;;9.68;8.60;;;7.20;99.90;;;;;;4958349;28;20223;-82
2023/12/10 07:46:25;;;;;;;8.82;7.93;;;7.20;99.90;;;;;;4958758;28;20248;-76
2023/12/10 07:49:01;;;;;;;10.88;8.23;;;7.30;99.90;;;;;;4959018;28;20228;-75
2023/12/10 07:51:28;;;;;;;11.75;8.38;;;7.20;99.90;;;;;;4947800;28;20266;-75
2023/12/10 07:53:56;;;;;;;9.85;8.55;;;7.20;99.90;;;;;;4958036;28;20692;-75
2023/12/10 07:56:23;;;;;;;7.43;6.40;;;7.20;99.90;;;;;;4957617;28;20568;-75
2023/12/10 07:58:50;;;;;;;10.35;7.57;;;7.30;99.90;;;;;;4958091;28;20228;-75
2023/12/10 08:01:17;;;;;;;9.18;8.27;;;7.30;99.90;;;;;;4957446;28;20228;-76
2023/12/10 08:03:44;;;;;;;11.65;8.88;;;7.30;99.90;;;;;;4958264;28;20224;-83
2023/12/10 08:06:11;;;;;;;8.40;7.47;;;7.30;99.90;;;;;;4958271;28;20678;-83
2023/12/10 08:08:40;;;;;;;8.43;6.75;;;7.40;99.90;;;;;;4950220;28;20228;-75
2023/12/10 08:11:11;;;;;;;8.13;7.05;;;7.50;99.90;;;;;;4958305;28;20306;-75
2023/12/10 08:13:38;;;;;;;9.68;7.72;;;7.50;99.90;;;;;;4956598;28;20247;-75
2023/12/10 08:16:06;;;;;;;7.70;6.88;;;7.50;99.90;;;;;;4958130;28;20280;-83
2023/12/10 08:18:33;;;;;;;9.80;7.00;;;7.60;99.90;;;;;;4948197;28;20239;-82
2023/12/10 08:21:01;;;;;;;8.82;6.97;;;7.60;99.90;;;;;;4958372;28;20675;-83
2023/12/10 08:23:30;;;;;;;6.97;5.70;;;7.60;99.90;;;;;;4956873;28;20232;-82
2023/12/10 08:25:57;;;;;;;9.98;7.15;;;7.60;99.90;;;;;;4958026;28;20220;-82
2023/12/10 08:28:26;;;;;;;9.43;6.30;;;7.60;99.90;;;;;;4956964;28;20228;-76
2023/12/10 08:30:53;;;;;;;7.00;5.00;;;7.60;99.90;;;;;;4957745;28;20228;-75
2023/12/10 08:33:21;;;;;;;7.60;6.10;;;7.70;99.90;;;;;;4956825;28;20228;-75
2023/12/10 08:35:48;;;;;;;6.95;5.30;;;7.70;99.90;;;;;;4957099;28;20283;-82
2023/12/10 08:38:15;;;;;;;8.07;5.60;;;7.70;99.90;;;;;;4957049;28;20231;-82
2023/12/10 08:40:42;;;;;;;5.25;4.75;;;7.80;99.90;;;;;;4957533;28;20674;-82
2023/12/10 08:43:09;;;;;;;11.30;4.70;;;7.90;99.90;;;;;;4956890;28;20240;-83
2023/12/10 08:45:38;;;;;;;13.10;5.68;;;7.90;99.90;;;;;;4947052;28;20278;-76
2023/12/10 08:48:05;;;;;;;6.97;4.90;;;8.00;99.90;;;;;;4957212;28;20228;-76
2023/12/10 08:50:32;;;;;;;7.97;6.22;;;8.10;99.90;;;;;;4956781;28;20228;-76
2023/12/10 08:52:59;;;;;;;8.68;5.03;;;8.10;99.90;;;;;;4957067;28;20224;-76
2023/12/10 08:55:26;;;;;;;8.07;5.07;;;8.10;99.90;;;;;;4957219;28;20753;-76
2023/12/10 08:57:53;;;;;;;11.32;5.03;;;8.10;99.90;;;;;;4956389;28;20227;-76
2023/12/10 09:00:20;;;;;;;6.43;4.10;;;8.20;99.90;;;;;;4957078;28;20235;-76
2023/12/10 09:02:48;;;;;;;4.60;4.18;;;8.20;99.90;;;;;;4956525;28;20237;-75
2023/12/10 09:05:19;;;;;;;8.02;4.55;;;8.30;99.90;;;;;;4956902;28;20712;-76
2023/12/10 09:07:46;;;;;;;9.38;4.53;;;8.40;99.90;;;;;;4956374;28;20236;-76
2023/12/10 09:10:18;;;;;;;5.03;4.53;;;8.40;99.90;;;;;;4956987;28;20369;-76
2023/12/10 09:12:45;;;;;;;5.53;3.90;;;8.50;99.90;;;;;;4956362;28;20232;-76
2023/12/10 09:15:12;;;;;;;16.85;5.15;;;8.60;99.90;;;;;;4956951;28;20240;-76
2023/12/10 09:17:39;;;;;;;10.35;4.85;;;8.60;99.90;;;;;;4956237;28;20598;-76
2023/12/10 09:20:09;;;;;;;8.30;4.57;;;8.70;99.90;;;;;;4956647;28;20235;-76
2023/12/10 09:22:39;;;;;;;7.13;4.05;;;8.80;99.90;;;;;;4955615;28;20243;-76
2023/12/10 09:25:06;;;;;;;8.07;4.65;;;8.80;99.90;;;;;;4956462;28;20243;-76
2023/12/10 09:27:33;;;;;;;10.25;4.97;;;8.80;99.90;;;;;;4956225;28;20236;-75
2023/12/10 09:30:00;;;;;;;8.30;4.35;;;8.80;99.90;;;;;;4956687;28;20256;-76
2023/12/10 09:32:27;;;;;;;10.00;5.22;;;8.90;99.90;;;;;;4956537;28;20678;-75
2023/12/10 09:34:55;;;;;;;8.93;4.22;;;8.90;99.90;;;;;;4955971;28;20232;-75
2023/12/10 09:37:23;;;;;;;11.55;5.70;;;9.00;99.90;;;;;;4956428;28;20597;-75
2023/12/10 09:39:50;;;;;;;10.30;6.70;;;9.00;99.90;;;;;;4955255;28;20228;-75
2023/12/10 09:42:17;;;;;;;16.52;9.70;;;9.00;99.90;;;;;;4956105;28;20258;-75
2023/12/10 09:44:47;;;;;;;12.70;6.55;;;9.00;99.90;;;;;;4955296;28;20240;-76
2023/12/10 09:47:14;;;;;;;11.63;5.80;;;9.00;99.90;;;;;;4956207;28;20242;-75
2023/12/10 09:49:42;;;;;;;11.48;5.47;;;9.10;99.90;;;;;;4955293;28;20232;-76
2023/12/10 09:52:11;;;;;;;14.85;5.43;;;9.10;99.90;;;;;;4956056;28;20294;-83
2023/12/10 09:54:40;;;;;;;9.73;5.75;;;9.10;99.90;;;;;;4956114;28;20228;-82
2023/12/10 09:57:08;;;;;;;18.10;6.32;;;9.10;99.90;;;;;;4956527;28;20250;-83
2023/12/10 09:59:36;;;;;;;12.85;6.80;;;9.10;99.90;;;;;;4957158;28;20228;-83
2023/12/10 10:02:05;;;;;;;12.13;6.80;;;9.10;99.90;;;;;;4958214;28;20307;-85
2023/12/10 10:04:32;;;;;;;12.10;4.47;;;9.10;99.90;;;;;;4956798;28;20227;-83
2023/12/10 10:06:59;;;;;;;9.40;4.35;;;9.10;99.90;;;;;;4956139;28;20224;-84
2023/12/10 10:09:26;;;;;;;11.98;5.38;;;9.10;99.90;;;;;;4958030;28;20228;-84
2023/12/10 10:11:56;;;;;;;17.85;5.20;;;9.20;99.90;;;;;;4955483;28;20235;-84
2023/12/10 10:15:17;;;;;;;7.93;4.70;;;9.20;99.90;;;;;;4956644;28;20224;-84
2023/12/10 10:17:44;;;;;;;6.82;4.00;;;9.30;99.90;;;;;;4954988;28;20247;-84
2023/12/10 10:20:11;;;;;;;9.95;4.22;;;9.30;99.90;;;;;;4955662;28;20243;-84
2023/12/10 10:22:38;;;;;;;14.95;4.70;;;9.30;99.90;;;;;;4950317;28;20231;-83
2023/12/10 10:25:06;;;;;;;13.00;5.30;;;9.30;99.90;;;;;;4950096;28;20231;-83
2023/12/10 10:27:38;;;;;;;10.30;5.05;;;9.30;99.90;;;;;;4958888;28;20220;-82
2023/12/10 10:30:06;;;;;;;13.40;5.80;;;9.30;99.90;;;;;;4959353;29;20620;-82
2023/12/10 10:32:34;;;;;;;7.72;5.10;;;9.40;99.90;;;;;;4958358;28;20236;-83
2023/12/10 10:35:04;;;;;;;12.02;4.18;;;9.40;99.90;;;;;;4959158;28;20232;-83
2023/12/10 10:37:32;;;;;;;9.05;4.63;;;9.50;99.90;;;;;;4958412;28;20223;-83
2023/12/10 10:39:58;;;;;;;10.00;4.43;;;9.50;99.90;;;;;;4959193;28;20246;-83
2023/12/10 10:42:25;;;;;;;14.75;4.70;;;9.60;99.90;;;;;;4970455;28;20228;-83
2023/12/10 10:44:54;;;;;;;10.85;3.70;;;9.60;99.90;;;;;;4954877;28;20216;-84
2023/12/10 10:47:23;;;;;;;9.15;4.13;;;9.60;99.90;;;;;;4964262;28;20223;-84
2023/12/10 10:49:54;;;;;;;9.88;3.97;;;9.60;99.90;;;;;;4974323;28;20223;-83
2023/12/10 10:52:24;;;;;;;13.95;5.80;;;9.70;99.90;;;;;;4975044;28;20688;-83
2023/12/10 10:54:53;;;;;;;14.50;4.88;;;9.70;99.90;;;;;;4978489;28;20238;-83
2023/12/10 10:57:29;;;;;;;16.60;6.93;;;9.70;99.90;;;;;;4964100;28;20373;-83
2023/12/10 10:59:57;;;;;;;15.00;7.88;;;9.70;99.90;;;;;;4957980;28;20262;-83
2023/12/10 11:02:24;;;;;;;15.93;5.32;;;9.60;99.90;;;;;;4963829;28;20231;-83
2023/12/10 11:04:52;;;;;;;18.10;5.03;;;9.60;99.90;;;;;;4961810;28;20228;-82
2023/12/10 11:07:24;;;;;;;9.32;4.35;;;9.70;99.90;;;;;;4959508;29;20255;-83
2023/12/10 11:09:57;;;;;;;10.95;4.00;;;9.70;99.90;;;;;;4964092;28;20221;-83
2023/12/10 11:12:49;;;;;;;11.43;3.92;;;9.80;99.90;;;;;;4978033;28;20238;-83
2023/12/10 11:15:28;;;;;;;11.10;4.80;;;9.70;99.90;;;;;;4977847;28;20314;-82
2023/12/10 11:17:59;;;;;;;12.40;5.15;;;9.70;99.90;;;;;;4975821;28;20273;-83
2023/12/10 11:20:34;;;;;;;15.05;4.07;;;9.70;99.90;;;;;;4958311;29;20232;-82
2023/12/10 11:23:03;;;;;;;17.00;4.07;;;9.70;99.90;;;;;;4958353;29;20537;-82
2023/12/10 11:25:30;;;;;;;9.73;5.18;;;9.70;99.90;;;;;;4958149;29;20223;-82
2023/12/10 11:27:57;;;;;;;17.45;7.47;;;9.70;99.90;;;;;;4958145;29;20663;-83
2023/12/10 11:30:25;;;;;;;12.80;4.88;;;9.70;99.90;;;;;;4947835;29;20228;-83
2023/12/10 11:32:53;;;;;;;10.48;5.30;;;9.80;99.90;;;;;;4939102;29;20239;-82
2023/12/10 11:35:20;;;;;;;17.50;4.95;;;9.80;99.90;;;;;;4942638;29;20220;-82
2023/12/10 11:37:47;;;;;;;13.65;4.28;;;9.80;99.90;;;;;;4958311;29;20257;-82
2023/12/10 11:40:14;;;;;;;11.30;6.05;;;9.80;99.90;;;;;;4957474;29;20318;-83
2023/12/10 11:42:41;;;;;;;12.20;6.45;;;9.80;99.90;;;;;;4957753;29;20686;-83
2023/12/10 11:45:09;;;;;;;8.23;4.60;;;9.80;99.90;;;;;;4957231;29;20231;-82
2023/12/10 11:47:36;;;;;;;14.05;4.22;;;9.80;99.90;;;;;;4937119;29;20229;-82
2023/12/10 11:50:09;;;;;;;7.18;3.30;;;9.80;99.90;;;;;;4939282;29;20228;-82
2023/12/10 11:52:36;;;;;;;8.85;3.72;;;9.80;99.90;;;;;;4937572;29;20232;-82
2023/12/10 11:55:07;;;;;;;5.28;2.97;;;9.80;99.90;;;;;;4938630;29;20610;-82
2023/12/10 11:57:34;;;;;;;6.70;3.00;;;9.90;99.90;;;;;;4938344;29;20596;-82
2023/12/10 12:00:04;;;;;;;8.48;3.10;;;9.90;99.90;;;;;;4938936;29;20256;-82
2023/12/10 12:02:31;;;;;;;13.80;3.67;;;9.90;99.90;;;;;;4937942;29;20233;-82
2023/12/10 12:04:58;;;;;;;9.27;3.40;;;9.90;99.90;;;;;;4938530;29;20225;-81
2023/12/10 12:07:30;;;;;;;6.47;3.05;;;9.90;99.90;;;;;;4937810;29;20699;-83
2023/12/10 12:09:57;;;;;;;11.90;4.45;;;9.90;99.90;;;;;;4938468;29;20271;-82
2023/12/10 12:12:25;;;;;;;9.55;3.45;;;9.90;99.90;;;;;;4937419;29;20679;-82
2023/12/10 12:14:53;;;;;;;16.38;4.63;;;9.90;99.90;;;;;;4938674;29;20577;-82
2023/12/10 12:17:21;;;;;;;6.28;3.97;;;9.90;99.90;;;;;;4937852;29;20319;-82
2023/12/10 12:19:48;;;;;;;13.57;4.63;;;9.80;99.90;;;;;;4938140;29;20237;-82
2023/12/10 12:22:15;;;;;;;5.85;3.95;;;9.90;99.90;;;;;;4937666;29;20323;-82
2023/12/10 12:24:44;;;;;;;11.23;4.72;;;9.90;99.90;;;;;;4938435;29;20217;-83
2023/12/10 12:27:12;;;;;;;10.52;4.20;;;9.90;99.90;;;;;;4938502;29;20665;-82
2023/12/10 12:29:39;;;;;;;15.25;5.47;;;9.90;99.90;;;;;;4938028;29;20246;-82
2023/12/10 12:32:07;;;;;;;9.65;5.50;;;10.00;99.90;;;;;;4937974;29;20267;-82
2023/12/10 12:34:34;;;;;;;18.67;12.00;;;10.00;99.90;;;;;;4937932;29;20694;-82
2023/12/10 12:37:01;;;;;;;16.77;15.00;;;9.90;99.90;;;;;;4938272;29;20252;-83
2023/12/10 12:39:28;;;;;;;12.55;8.27;;;10.00;99.90;;;;;;4937837;29;20229;-82
2023/12/10 12:41:56;;;;;;;14.32;5.30;;;10.00;99.90;;;;;;4938288;29;20235;-82
2023/12/10 12:44:23;;;;;;;12.75;6.10;;;10.00;99.90;;;;;;4937354;29;20231;-82
2023/12/10 12:46:50;;;;;;;13.30;8.30;;;9.90;99.90;;;;;;4937874;29;20561;-82
2023/12/10 12:49:17;;;;;;;13.40;6.03;;;9.90;99.90;;;;;;4937363;29;20228;-80
2023/12/10 12:51:44;;;;;;;12.63;4.90;;;9.90;99.90;;;;;;4937949;29;20232;-81
2023/12/10 12:54:11;;;;;;;16.58;6.63;;;9.90;99.90;;;;;;4938047;29;20663;-82
2023/12/10 12:56:40;;;;;;;8.77;3.83;;;9.80;99.90;;;;;;4936935;29;20229;-83